sensor_id;sensor_type;location;lat;lon;timestamp;temperature;humidity
34985;DHT22;21190;58.750;17.004;2022-08-18T00:01:41;18.70;99.90
34985;DHT22;21190;58.750;17.004;2022-08-18T00:04:09;18.60;99.90
34985;DHT22;21190;58.750;17.004;2022-08-18T00:06:56;18.60;99.90
34985;DHT22;21190;58.750;17.004;2022-08-18T00:09:24;18.50;99.90
34985;DHT22;21190;58.750;17.004;2022-08-18T00:11:57;18.50;99.90
34985;DHT22;21190;58.750;17.004;2022-08-18T00:14:24;18.50;99.90
34985;DHT22;21190;58.750;17.004;2022-08-18T00:16:52;18.40;99.90
34985;DHT22;21190;58.750;17.004;2022-08-18T00:19:19;18.40;99.90
34985;DHT22;21190;58.750;17.004;2022-08-18T00:22:06;18.50;99.90
34985;DHT22;21190;58.750;17.004;2022-08-18T00:24:33;18.50;99.90
34985;DHT22;21190;58.750;17.004;2022-08-18T00:27:00;18.50;99.90
34985;DHT22;21190;58.750;17.004;2022-08-18T00:29:27;18.40;99.90
34985;DHT22;21190;58.750;17.004;2022-08-18T00:31:54;18.40;99.90
34985;DHT22;21190;58.750;17.004;2022-08-18T00:34:21;18.30;99.90
34985;DHT22;21190;58.750;17.004;2022-08-18T00:36:48;18.30;99.90
34985;DHT22;21190;58.750;17.004;2022-08-18T00:39:15;18.20;99.90
34985;DHT22;21190;58.750;17.004;2022-08-18T00:41:42;18.20;99.90
34985;DHT22;21190;58.750;17.004;2022-08-18T00:44:09;18.10;99.90
34985;DHT22;21190;58.750;17.004;2022-08-18T00:46:36;18.10;99.90
34985;DHT22;21190;58.750;17.004;2022-08-18T00:49:04;18.00;99.90
34985;DHT22;21190;58.750;17.004;2022-08-18T00:51:38;18.00;99.90
34985;DHT22;21190;58.750;17.004;2022-08-18T00:56:37;17.90;99.90
34985;DHT22;21190;58.750;17.004;2022-08-18T00:59:06;17.80;99.90
34985;DHT22;21190;58.750;17.004;2022-08-18T01:01:34;17.70;99.90
34985;DHT22;21190;58.750;17.004;2022-08-18T01:04:04;17.70;99.90
34985;DHT22;21190;58.750;17.004;2022-08-18T01:06:41;17.70;99.90
34985;DHT22;21190;58.750;17.004;2022-08-18T01:09:09;17.70;99.90
34985;DHT22;21190;58.750;17.004;2022-08-18T01:11:37;17.80;99.90
34985;DHT22;21190;58.750;17.004;2022-08-18T01:14:05;17.80;99.90
34985;DHT22;21190;58.750;17.004;2022-08-18T01:16:32;17.80;99.90
34985;DHT22;21190;58.750;17.004;2022-08-18T01:19:23;17.70;99.90
34985;DHT22;21190;58.750;17.004;2022-08-18T01:22:12;17.70;99.90
34985;DHT22;21190;58.750;17.004;2022-08-18T01:24:40;17.60;99.90
34985;DHT22;21190;58.750;17.004;2022-08-18T01:27:26;17.50;99.90
34985;DHT22;21190;58.750;17.004;2022-08-18T01:29:55;17.40;99.90
34985;DHT22;21190;58.750;17.004;2022-08-18T01:32:23;17.40;99.90
34985;DHT22;21190;58.750;17.004;2022-08-18T01:34:50;17.30;99.90
34985;DHT22;21190;58.750;17.004;2022-08-18T01:37:18;17.30;99.90
34985;DHT22;21190;58.750;17.004;2022-08-18T01:39:45;17.40;99.90
34985;DHT22;21190;58.750;17.004;2022-08-18T01:42:32;17.40;99.90
34985;DHT22;21190;58.750;17.004;2022-08-18T01:45:00;17.50;99.90
34985;DHT22;21190;58.750;17.004;2022-08-18T01:47:30;17.50;99.90
34985;DHT22;21190;58.750;17.004;2022-08-18T01:50:14;17.40;99.90
34985;DHT22;21190;58.750;17.004;2022-08-18T01:52:40;17.40;99.90
34985;DHT22;21190;58.750;17.004;2022-08-18T01:55:08;17.40;99.90
34985;DHT22;21190;58.750;17.004;2022-08-18T01:57:36;17.50;99.90
34985;DHT22;21190;58.750;17.004;2022-08-18T02:00:09;17.40;99.90
34985;DHT22;21190;58.750;17.004;2022-08-18T02:02:38;17.40;99.90
34985;DHT22;21190;58.750;17.004;2022-08-18T02:05:07;17.40;99.90
34985;DHT22;21190;58.750;17.004;2022-08-18T02:07:35;17.30;99.90
34985;DHT22;21190;58.750;17.004;2022-08-18T02:10:04;17.30;99.90
34985;DHT22;21190;58.750;17.004;2022-08-18T02:12:37;17.20;99.90
34985;DHT22;21190;58.750;17.004;2022-08-18T02:15:04;17.20;99.90
34985;DHT22;21190;58.750;17.004;2022-08-18T02:17:40;17.30;99.90
34985;DHT22;21190;58.750;17.004;2022-08-18T02:20:08;17.20;99.90
34985;DHT22;21190;58.750;17.004;2022-08-18T02:22:36;17.20;99.90
34985;DHT22;21190;58.750;17.004;2022-08-18T02:25:03;17.20;99.90
34985;DHT22;21190;58.750;17.004;2022-08-18T02:27:32;17.20;99.90
34985;DHT22;21190;58.750;17.004;2022-08-18T02:29:59;17.20;99.90
34985;DHT22;21190;58.750;17.004;2022-08-18T02:32:26;17.20;99.90
34985;DHT22;21190;58.750;17.004;2022-08-18T02:34:55;17.10;99.90
34985;DHT22;21190;58.750;17.004;2022-08-18T02:37:21;17.10;99.90
34985;DHT22;21190;58.750;17.004;2022-08-18T02:39:48;17.10;99.90
34985;DHT22;21190;58.750;17.004;2022-08-18T02:42:15;17.10;99.90
34985;DHT22;21190;58.750;17.004;2022-08-18T02:44:43;17.00;99.90
34985;DHT22;21190;58.750;17.004;2022-08-18T02:47:09;17.00;99.90
34985;DHT22;21190;58.750;17.004;2022-08-18T02:49:36;17.00;99.90
34985;DHT22;21190;58.750;17.004;2022-08-18T02:52:03;17.00;99.90
34985;DHT22;21190;58.750;17.004;2022-08-18T02:54:30;17.10;99.90
34985;DHT22;21190;58.750;17.004;2022-08-18T02:56:57;17.10;99.90
34985;DHT22;21190;58.750;17.004;2022-08-18T02:59:25;17.20;99.90
34985;DHT22;21190;58.750;17.004;2022-08-18T03:01:57;17.30;99.90
34985;DHT22;21190;58.750;17.004;2022-08-18T03:04:24;17.30;99.90
34985;DHT22;21190;58.750;17.004;2022-08-18T03:06:56;17.40;99.90
34985;DHT22;21190;58.750;17.004;2022-08-18T03:09:23;17.50;99.90
34985;DHT22;21190;58.750;17.004;2022-08-18T03:11:50;17.50;99.90
34985;DHT22;21190;58.750;17.004;2022-08-18T03:14:18;17.50;99.90
34985;DHT22;21190;58.750;17.004;2022-08-18T03:16:45;17.60;99.90
34985;DHT22;21190;58.750;17.004;2022-08-18T03:19:21;17.60;99.90
34985;DHT22;21190;58.750;17.004;2022-08-18T03:21:49;17.50;99.90
34985;DHT22;21190;58.750;17.004;2022-08-18T03:24:15;17.40;99.90
34985;DHT22;21190;58.750;17.004;2022-08-18T03:26:49;17.30;99.90
34985;DHT22;21190;58.750;17.004;2022-08-18T03:29:16;17.30;99.90
34985;DHT22;21190;58.750;17.004;2022-08-18T03:31:43;17.20;99.90
34985;DHT22;21190;58.750;17.004;2022-08-18T03:34:11;17.20;99.90
34985;DHT22;21190;58.750;17.004;2022-08-18T03:36:38;17.20;99.90
34985;DHT22;21190;58.750;17.004;2022-08-18T03:39:06;17.20;99.90
34985;DHT22;21190;58.750;17.004;2022-08-18T03:41:33;17.20;99.90
34985;DHT22;21190;58.750;17.004;2022-08-18T03:44:23;17.10;99.90
34985;DHT22;21190;58.750;17.004;2022-08-18T03:46:50;17.10;99.90
34985;DHT22;21190;58.750;17.004;2022-08-18T03:49:18;17.10;99.90
34985;DHT22;21190;58.750;17.004;2022-08-18T03:51:46;17.10;99.90
34985;DHT22;21190;58.750;17.004;2022-08-18T03:54:15;17.10;99.90
34985;DHT22;21190;58.750;17.004;2022-08-18T03:56:43;17.10;99.90
34985;DHT22;21190;58.750;17.004;2022-08-18T03:59:11;17.00;99.90
34985;DHT22;21190;58.750;17.004;2022-08-18T04:01:40;17.00;99.90
34985;DHT22;21190;58.750;17.004;2022-08-18T04:04:08;16.90;99.90
34985;DHT22;21190;58.750;17.004;2022-08-18T04:06:37;16.90;99.90
34985;DHT22;21190;58.750;17.004;2022-08-18T04:09:06;16.90;99.90
34985;DHT22;21190;58.750;17.004;2022-08-18T04:11:34;16.80;99.90
34985;DHT22;21190;58.750;17.004;2022-08-18T04:14:03;16.80;99.90
34985;DHT22;21190;58.750;17.004;2022-08-18T04:16:31;16.80;99.90
34985;DHT22;21190;58.750;17.004;2022-08-18T04:18:58;16.90;99.90
34985;DHT22;21190;58.750;17.004;2022-08-18T04:21:31;16.90;99.90
34985;DHT22;21190;58.750;17.004;2022-08-18T04:23:59;17.00;99.90
34985;DHT22;21190;58.750;17.004;2022-08-18T04:26:31;17.00;99.90
34985;DHT22;21190;58.750;17.004;2022-08-18T04:28:58;17.00;99.90
34985;DHT22;21190;58.750;17.004;2022-08-18T04:31:28;17.10;99.90
34985;DHT22;21190;58.750;17.004;2022-08-18T04:33:56;17.10;99.90
34985;DHT22;21190;58.750;17.004;2022-08-18T04:36:24;17.10;99.90
34985;DHT22;21190;58.750;17.004;2022-08-18T04:38:52;17.20;99.90
34985;DHT22;21190;58.750;17.004;2022-08-18T04:41:22;17.30;99.90
34985;DHT22;21190;58.750;17.004;2022-08-18T04:43:59;17.30;99.90
34985;DHT22;21190;58.750;17.004;2022-08-18T04:46:27;17.40;99.90
34985;DHT22;21190;58.750;17.004;2022-08-18T04:48:56;17.50;99.90
34985;DHT22;21190;58.750;17.004;2022-08-18T04:51:26;17.70;99.90
34985;DHT22;21190;58.750;17.004;2022-08-18T04:54:13;17.80;99.90
34985;DHT22;21190;58.750;17.004;2022-08-18T04:56:47;17.90;99.90
34985;DHT22;21190;58.750;17.004;2022-08-18T04:59:16;18.00;99.90
34985;DHT22;21190;58.750;17.004;2022-08-18T05:01:44;18.10;99.90
34985;DHT22;21190;58.750;17.004;2022-08-18T05:04:12;18.20;99.90
34985;DHT22;21190;58.750;17.004;2022-08-18T05:06:40;18.30;99.90
34985;DHT22;21190;58.750;17.004;2022-08-18T05:09:09;18.40;99.90
34985;DHT22;21190;58.750;17.004;2022-08-18T05:11:36;18.50;99.90
34985;DHT22;21190;58.750;17.004;2022-08-18T05:14:07;18.60;99.90
34985;DHT22;21190;58.750;17.004;2022-08-18T05:16:34;18.80;99.90
34985;DHT22;21190;58.750;17.004;2022-08-18T05:19:15;18.80;99.90
34985;DHT22;21190;58.750;17.004;2022-08-18T05:21:44;18.80;99.90
34985;DHT22;21190;58.750;17.004;2022-08-18T05:24:16;19.00;99.90
34985;DHT22;21190;58.750;17.004;2022-08-18T05:26:43;19.10;99.90
34985;DHT22;21190;58.750;17.004;2022-08-18T05:29:11;19.10;99.90
34985;DHT22;21190;58.750;17.004;2022-08-18T05:31:45;19.30;99.90
34985;DHT22;21190;58.750;17.004;2022-08-18T05:34:13;19.40;99.90
34985;DHT22;21190;58.750;17.004;2022-08-18T05:42:15;19.60;99.90
34985;DHT22;21190;58.750;17.004;2022-08-18T05:44:48;19.70;99.90
34985;DHT22;21190;58.750;17.004;2022-08-18T05:47:23;19.70;99.90
34985;DHT22;21190;58.750;17.004;2022-08-18T05:49:50;19.80;99.90
34985;DHT22;21190;58.750;17.004;2022-08-18T05:52:20;19.80;99.90
34985;DHT22;21190;58.750;17.004;2022-08-18T05:54:49;19.80;99.90
34985;DHT22;21190;58.750;17.004;2022-08-18T05:57:41;19.90;99.90
34985;DHT22;21190;58.750;17.004;2022-08-18T06:00:08;19.90;99.90
34985;DHT22;21190;58.750;17.004;2022-08-18T06:02:54;20.10;99.90
34985;DHT22;21190;58.750;17.004;2022-08-18T06:05:37;20.10;99.90
34985;DHT22;21190;58.750;17.004;2022-08-18T06:08:10;20.20;99.90
34985;DHT22;21190;58.750;17.004;2022-08-18T06:10:38;20.20;99.90
34985;DHT22;21190;58.750;17.004;2022-08-18T06:13:08;20.40;99.90
34985;DHT22;21190;58.750;17.004;2022-08-18T06:18:40;20.40;99.90
34985;DHT22;21190;58.750;17.004;2022-08-18T06:23:58;20.60;99.90
34985;DHT22;21190;58.750;17.004;2022-08-18T06:27:09;20.70;99.90
34985;DHT22;21190;58.750;17.004;2022-08-18T06:29:21;20.80;99.90
34985;DHT22;21190;58.750;17.004;2022-08-18T06:32:06;20.80;99.90
34985;DHT22;21190;58.750;17.004;2022-08-18T06:37:15;21.00;99.90
34985;DHT22;21190;58.750;17.004;2022-08-18T06:39:48;21.00;99.90
34985;DHT22;21190;58.750;17.004;2022-08-18T06:42:19;21.10;99.90
34985;DHT22;21190;58.750;17.004;2022-08-18T06:44:48;21.30;99.90
34985;DHT22;21190;58.750;17.004;2022-08-18T06:49:47;21.40;99.90
34985;DHT22;21190;58.750;17.004;2022-08-18T06:52:17;21.50;99.90
34985;DHT22;21190;58.750;17.004;2022-08-18T06:54:44;21.50;99.90
34985;DHT22;21190;58.750;17.004;2022-08-18T06:57:29;21.60;99.90
34985;DHT22;21190;58.750;17.004;2022-08-18T06:59:58;21.70;99.90
34985;DHT22;21190;58.750;17.004;2022-08-18T07:02:30;21.80;99.90
34985;DHT22;21190;58.750;17.004;2022-08-18T07:05:06;21.90;99.90
34985;DHT22;21190;58.750;17.004;2022-08-18T07:07:37;22.00;99.90
34985;DHT22;21190;58.750;17.004;2022-08-18T07:12:39;22.10;99.90
34985;DHT22;21190;58.750;17.004;2022-08-18T07:15:06;22.10;99.90
34985;DHT22;21190;58.750;17.004;2022-08-18T07:17:34;22.10;99.90
34985;DHT22;21190;58.750;17.004;2022-08-18T07:20:19;22.20;99.90
34985;DHT22;21190;58.750;17.004;2022-08-18T07:22:51;22.30;99.90
34985;DHT22;21190;58.750;17.004;2022-08-18T07:25:19;22.30;99.90
34985;DHT22;21190;58.750;17.004;2022-08-18T07:27:48;22.30;99.90
34985;DHT22;21190;58.750;17.004;2022-08-18T07:32:46;22.40;99.90
34985;DHT22;21190;58.750;17.004;2022-08-18T07:35:16;22.40;99.90
34985;DHT22;21190;58.750;17.004;2022-08-18T07:38:00;22.50;99.90
34985;DHT22;21190;58.750;17.004;2022-08-18T07:40:54;22.50;99.90
34985;DHT22;21190;58.750;17.004;2022-08-18T07:43:31;22.60;99.90
34985;DHT22;21190;58.750;17.004;2022-08-18T07:46:07;22.70;99.90
34985;DHT22;21190;58.750;17.004;2022-08-18T07:48:36;22.70;99.90
34985;DHT22;21190;58.750;17.004;2022-08-18T07:53:38;22.80;99.90
34985;DHT22;21190;58.750;17.004;2022-08-18T07:56:13;22.90;99.90
34985;DHT22;21190;58.750;17.004;2022-08-18T08:01:44;22.90;99.90
34985;DHT22;21190;58.750;17.004;2022-08-18T08:07:03;23.10;99.90
34985;DHT22;21190;58.750;17.004;2022-08-18T08:09:57;23.10;99.90
34985;DHT22;21190;58.750;17.004;2022-08-18T08:15:03;23.30;99.90
34985;DHT22;21190;58.750;17.004;2022-08-18T08:17:39;23.30;99.90
34985;DHT22;21190;58.750;17.004;2022-08-18T08:28:16;23.50;99.90
34985;DHT22;21190;58.750;17.004;2022-08-18T08:30:54;23.60;99.90
34985;DHT22;21190;58.750;17.004;2022-08-18T08:33:47;23.70;99.90
34985;DHT22;21190;58.750;17.004;2022-08-18T08:44:11;23.80;99.90
34985;DHT22;21190;58.750;17.004;2022-08-18T08:46:44;23.90;99.90
34985;DHT22;21190;58.750;17.004;2022-08-18T08:52:03;24.00;99.90
34985;DHT22;21190;58.750;17.004;2022-08-18T08:54:37;24.10;99.90
34985;DHT22;21190;58.750;17.004;2022-08-18T08:57:06;24.10;99.90
34985;DHT22;21190;58.750;17.004;2022-08-18T08:59:35;24.10;99.90
34985;DHT22;21190;58.750;17.004;2022-08-18T09:02:19;24.20;99.90
34985;DHT22;21190;58.750;17.004;2022-08-18T09:05:11;24.30;99.90
34985;DHT22;21190;58.750;17.004;2022-08-18T09:18:10;24.40;99.90
34985;DHT22;21190;58.750;17.004;2022-08-18T09:23:20;24.50;99.90
34985;DHT22;21190;58.750;17.004;2022-08-18T09:25:49;24.50;99.90
34985;DHT22;21190;58.750;17.004;2022-08-18T09:28:22;24.50;99.90
34985;DHT22;21190;58.750;17.004;2022-08-18T09:42:07;24.50;99.90
34985;DHT22;21190;58.750;17.004;2022-08-18T09:47:12;24.50;99.90
34985;DHT22;21190;58.750;17.004;2022-08-18T09:55:02;24.40;99.90
34985;DHT22;21190;58.750;17.004;2022-08-18T09:57:33;24.40;99.90
34985;DHT22;21190;58.750;17.004;2022-08-18T10:13:24;24.40;99.90
34985;DHT22;21190;58.750;17.004;2022-08-18T10:21:16;24.50;99.90
34985;DHT22;21190;58.750;17.004;2022-08-18T10:29:48;24.50;99.90
34985;DHT22;21190;58.750;17.004;2022-08-18T10:32:17;24.50;99.90
34985;DHT22;21190;58.750;17.004;2022-08-18T10:34:48;24.40;99.90
34985;DHT22;21190;58.750;17.004;2022-08-18T10:39:46;24.50;99.90
34985;DHT22;21190;58.750;17.004;2022-08-18T10:42:26;24.50;99.90
34985;DHT22;21190;58.750;17.004;2022-08-18T10:47:36;24.60;99.90
34985;DHT22;21190;58.750;17.004;2022-08-18T10:50:04;24.60;99.90
34985;DHT22;21190;58.750;17.004;2022-08-18T10:55:30;24.60;99.90
34985;DHT22;21190;58.750;17.004;2022-08-18T11:01:08;24.50;99.90
34985;DHT22;21190;58.750;17.004;2022-08-18T11:03:44;24.50;99.90
34985;DHT22;21190;58.750;17.004;2022-08-18T11:06:22;24.50;99.90
34985;DHT22;21190;58.750;17.004;2022-08-18T11:08:54;24.50;99.90
34985;DHT22;21190;58.750;17.004;2022-08-18T11:11:27;24.40;99.90
34985;DHT22;21190;58.750;17.004;2022-08-18T11:14:11;24.40;99.90
34985;DHT22;21190;58.750;17.004;2022-08-18T11:16:48;24.40;99.90
34985;DHT22;21190;58.750;17.004;2022-08-18T11:19:20;24.30;99.90
34985;DHT22;21190;58.750;17.004;2022-08-18T11:21:51;24.30;99.90
34985;DHT22;21190;58.750;17.004;2022-08-18T11:24:22;24.40;99.90
34985;DHT22;21190;58.750;17.004;2022-08-18T11:26:55;24.40;99.90
34985;DHT22;21190;58.750;17.004;2022-08-18T11:29:37;24.40;99.90
34985;DHT22;21190;58.750;17.004;2022-08-18T11:32:07;24.40;99.90
34985;DHT22;21190;58.750;17.004;2022-08-18T11:34:44;24.40;99.90
34985;DHT22;21190;58.750;17.004;2022-08-18T11:37:31;24.20;99.90
34985;DHT22;21190;58.750;17.004;2022-08-18T11:43:18;24.10;99.90
34985;DHT22;21190;58.750;17.004;2022-08-18T11:45:50;24.10;99.90
34985;DHT22;21190;58.750;17.004;2022-08-18T11:51:18;24.00;99.90
34985;DHT22;21190;58.750;17.004;2022-08-18T11:53:51;24.00;99.90
34985;DHT22;21190;58.750;17.004;2022-08-18T11:56:38;23.90;99.90
34985;DHT22;21190;58.750;17.004;2022-08-18T11:59:06;24.00;99.90
34985;DHT22;21190;58.750;17.004;2022-08-18T12:09:19;24.10;99.90
34985;DHT22;21190;58.750;17.004;2022-08-18T12:17:43;24.10;99.90
34985;DHT22;21190;58.750;17.004;2022-08-18T12:20:18;24.00;99.90
34985;DHT22;21190;58.750;17.004;2022-08-18T12:22:45;24.00;99.90
34985;DHT22;21190;58.750;17.004;2022-08-18T12:25:15;23.90;99.90
34985;DHT22;21190;58.750;17.004;2022-08-18T12:27:51;24.00;99.90
34985;DHT22;21190;58.750;17.004;2022-08-18T12:30:18;23.90;99.90
34985;DHT22;21190;58.750;17.004;2022-08-18T12:32:45;23.90;99.90
34985;DHT22;21190;58.750;17.004;2022-08-18T12:35:16;23.90;99.90
34985;DHT22;21190;58.750;17.004;2022-08-18T12:37:47;23.90;99.90
34985;DHT22;21190;58.750;17.004;2022-08-18T12:40:34;23.90;99.90
34985;DHT22;21190;58.750;17.004;2022-08-18T12:43:02;23.90;99.90
34985;DHT22;21190;58.750;17.004;2022-08-18T12:45:31;24.00;99.90
34985;DHT22;21190;58.750;17.004;2022-08-18T12:47:58;24.10;99.90
34985;DHT22;21190;58.750;17.004;2022-08-18T12:50:30;24.20;99.90
34985;DHT22;21190;58.750;17.004;2022-08-18T12:53:03;24.30;99.90
34985;DHT22;21190;58.750;17.004;2022-08-18T12:55:30;24.30;99.90
34985;DHT22;21190;58.750;17.004;2022-08-18T12:58:00;24.30;99.90
34985;DHT22;21190;58.750;17.004;2022-08-18T13:00:27;24.30;99.90
34985;DHT22;21190;58.750;17.004;2022-08-18T13:02:55;24.20;99.90
34985;DHT22;21190;58.750;17.004;2022-08-18T13:05:23;24.20;99.90
34985;DHT22;21190;58.750;17.004;2022-08-18T13:07:55;24.30;99.90
34985;DHT22;21190;58.750;17.004;2022-08-18T13:10:23;24.40;99.90
34985;DHT22;21190;58.750;17.004;2022-08-18T13:13:10;24.40;99.90
34985;DHT22;21190;58.750;17.004;2022-08-18T13:15:37;24.50;99.90
34985;DHT22;21190;58.750;17.004;2022-08-18T13:18:10;24.50;99.90
34985;DHT22;21190;58.750;17.004;2022-08-18T13:20:40;24.50;99.90
34985;DHT22;21190;58.750;17.004;2022-08-18T13:23:10;24.60;99.90
34985;DHT22;21190;58.750;17.004;2022-08-18T13:25:37;24.60;99.90
34985;DHT22;21190;58.750;17.004;2022-08-18T13:28:05;24.70;99.90
34985;DHT22;21190;58.750;17.004;2022-08-18T13:30:32;24.60;99.90
34985;DHT22;21190;58.750;17.004;2022-08-18T13:33:01;24.60;99.90
34985;DHT22;21190;58.750;17.004;2022-08-18T13:35:48;24.60;99.90
34985;DHT22;21190;58.750;17.004;2022-08-18T13:38:20;24.60;99.90
34985;DHT22;21190;58.750;17.004;2022-08-18T13:40:53;24.40;99.90
34985;DHT22;21190;58.750;17.004;2022-08-18T13:43:23;24.20;99.90
34985;DHT22;21190;58.750;17.004;2022-08-18T13:45:52;24.20;99.90
34985;DHT22;21190;58.750;17.004;2022-08-18T13:48:22;24.10;99.90
34985;DHT22;21190;58.750;17.004;2022-08-18T13:50:51;24.20;99.90
34985;DHT22;21190;58.750;17.004;2022-08-18T13:53:21;24.20;99.90
34985;DHT22;21190;58.750;17.004;2022-08-18T13:55:50;24.20;99.90
34985;DHT22;21190;58.750;17.004;2022-08-18T13:58:17;24.30;99.90
34985;DHT22;21190;58.750;17.004;2022-08-18T14:00:47;24.30;99.90
34985;DHT22;21190;58.750;17.004;2022-08-18T14:03:17;24.40;99.90
34985;DHT22;21190;58.750;17.004;2022-08-18T14:06:04;24.40;99.90
34985;DHT22;21190;58.750;17.004;2022-08-18T14:08:32;24.30;99.90
34985;DHT22;21190;58.750;17.004;2022-08-18T14:11:00;24.20;99.90
34985;DHT22;21190;58.750;17.004;2022-08-18T14:13:28;24.10;99.90
34985;DHT22;21190;58.750;17.004;2022-08-18T14:16:03;23.90;99.90
34985;DHT22;21190;58.750;17.004;2022-08-18T14:18:30;23.90;99.90
34985;DHT22;21190;58.750;17.004;2022-08-18T14:20:58;24.00;99.90
34985;DHT22;21190;58.750;17.004;2022-08-18T14:23:49;24.00;99.90
34985;DHT22;21190;58.750;17.004;2022-08-18T14:26:36;24.00;99.90
34985;DHT22;21190;58.750;17.004;2022-08-18T14:29:16;24.10;99.90
34985;DHT22;21190;58.750;17.004;2022-08-18T14:32:06;24.20;99.90
34985;DHT22;21190;58.750;17.004;2022-08-18T14:34:34;24.30;99.90
34985;DHT22;21190;58.750;17.004;2022-08-18T14:37:01;24.20;99.90
34985;DHT22;21190;58.750;17.004;2022-08-18T14:39:28;24.20;99.90
34985;DHT22;21190;58.750;17.004;2022-08-18T14:41:56;24.20;99.90
34985;DHT22;21190;58.750;17.004;2022-08-18T14:44:24;24.20;99.90
34985;DHT22;21190;58.750;17.004;2022-08-18T14:46:57;24.10;99.90
34985;DHT22;21190;58.750;17.004;2022-08-18T14:49:25;24.00;99.90
34985;DHT22;21190;58.750;17.004;2022-08-18T14:51:58;23.90;99.90
34985;DHT22;21190;58.750;17.004;2022-08-18T14:54:26;23.80;99.90
34985;DHT22;21190;58.750;17.004;2022-08-18T14:56:56;23.80;99.90
34985;DHT22;21190;58.750;17.004;2022-08-18T14:59:26;23.80;99.90
34985;DHT22;21190;58.750;17.004;2022-08-18T15:01:54;23.90;99.90
34985;DHT22;21190;58.750;17.004;2022-08-18T15:04:21;23.80;99.90
34985;DHT22;21190;58.750;17.004;2022-08-18T15:06:48;23.80;99.90
34985;DHT22;21190;58.750;17.004;2022-08-18T15:09:23;23.80;99.90
34985;DHT22;21190;58.750;17.004;2022-08-18T15:11:53;23.80;99.90
34985;DHT22;21190;58.750;17.004;2022-08-18T15:14:22;23.80;99.90
34985;DHT22;21190;58.750;17.004;2022-08-18T15:16:58;23.90;99.90
34985;DHT22;21190;58.750;17.004;2022-08-18T15:19:26;23.90;99.90
34985;DHT22;21190;58.750;17.004;2022-08-18T15:22:12;23.90;99.90
34985;DHT22;21190;58.750;17.004;2022-08-18T15:24:58;24.00;99.90
34985;DHT22;21190;58.750;17.004;2022-08-18T15:27:49;24.10;99.90
34985;DHT22;21190;58.750;17.004;2022-08-18T15:30:18;24.30;99.90
34985;DHT22;21190;58.750;17.004;2022-08-18T15:32:46;24.40;99.90
34985;DHT22;21190;58.750;17.004;2022-08-18T15:35:15;24.40;99.90
34985;DHT22;21190;58.750;17.004;2022-08-18T15:37:45;24.30;99.90
34985;DHT22;21190;58.750;17.004;2022-08-18T15:40:14;24.20;99.90
34985;DHT22;21190;58.750;17.004;2022-08-18T15:42:58;24.30;99.90
34985;DHT22;21190;58.750;17.004;2022-08-18T15:45:28;24.10;99.90
34985;DHT22;21190;58.750;17.004;2022-08-18T15:48:01;24.10;99.90
34985;DHT22;21190;58.750;17.004;2022-08-18T15:50:28;23.90;99.90
34985;DHT22;21190;58.750;17.004;2022-08-18T15:52:58;23.90;99.90
34985;DHT22;21190;58.750;17.004;2022-08-18T15:55:28;23.90;99.90
34985;DHT22;21190;58.750;17.004;2022-08-18T15:58:03;23.80;99.90
34985;DHT22;21190;58.750;17.004;2022-08-18T16:00:37;23.80;99.90
34985;DHT22;21190;58.750;17.004;2022-08-18T16:03:05;23.80;99.90
34985;DHT22;21190;58.750;17.004;2022-08-18T16:05:35;23.80;99.90
34985;DHT22;21190;58.750;17.004;2022-08-18T16:08:06;23.80;99.90
34985;DHT22;21190;58.750;17.004;2022-08-18T16:10:36;23.80;99.90
34985;DHT22;21190;58.750;17.004;2022-08-18T16:13:07;23.80;99.90
34985;DHT22;21190;58.750;17.004;2022-08-18T16:15:38;23.70;99.90
34985;DHT22;21190;58.750;17.004;2022-08-18T16:18:06;23.60;99.90
34985;DHT22;21190;58.750;17.004;2022-08-18T16:20:34;23.50;99.90
34985;DHT22;21190;58.750;17.004;2022-08-18T16:23:03;23.40;99.90
34985;DHT22;21190;58.750;17.004;2022-08-18T16:25:31;23.40;99.90
34985;DHT22;21190;58.750;17.004;2022-08-18T16:27:58;23.30;99.90
34985;DHT22;21190;58.750;17.004;2022-08-18T16:30:25;23.20;99.90
34985;DHT22;21190;58.750;17.004;2022-08-18T16:32:52;23.20;99.90
34985;DHT22;21190;58.750;17.004;2022-08-18T16:35:20;23.20;99.90
34985;DHT22;21190;58.750;17.004;2022-08-18T16:37:47;23.10;99.90
34985;DHT22;21190;58.750;17.004;2022-08-18T16:40:16;23.10;99.90
34985;DHT22;21190;58.750;17.004;2022-08-18T16:42:43;23.10;99.90
34985;DHT22;21190;58.750;17.004;2022-08-18T16:45:11;23.00;99.90
34985;DHT22;21190;58.750;17.004;2022-08-18T16:47:39;23.00;99.90
34985;DHT22;21190;58.750;17.004;2022-08-18T16:50:11;23.00;99.90
34985;DHT22;21190;58.750;17.004;2022-08-18T16:52:38;23.00;99.90
34985;DHT22;21190;58.750;17.004;2022-08-18T16:55:06;23.00;99.90
34985;DHT22;21190;58.750;17.004;2022-08-18T16:57:33;23.00;99.90
34985;DHT22;21190;58.750;17.004;2022-08-18T17:00:21;23.00;99.90
34985;DHT22;21190;58.750;17.004;2022-08-18T17:03:09;23.00;99.90
34985;DHT22;21190;58.750;17.004;2022-08-18T17:06:03;22.90;99.90
34985;DHT22;21190;58.750;17.004;2022-08-18T17:08:30;22.90;99.90
34985;DHT22;21190;58.750;17.004;2022-08-18T17:11:00;22.80;99.90
34985;DHT22;21190;58.750;17.004;2022-08-18T17:13:27;22.80;99.90
34985;DHT22;21190;58.750;17.004;2022-08-18T17:15:55;22.80;99.90
34985;DHT22;21190;58.750;17.004;2022-08-18T17:18:22;22.70;99.90
34985;DHT22;21190;58.750;17.004;2022-08-18T17:20:50;22.70;99.90
34985;DHT22;21190;58.750;17.004;2022-08-18T17:23:20;22.80;99.90
34985;DHT22;21190;58.750;17.004;2022-08-18T17:25:48;22.70;99.90
34985;DHT22;21190;58.750;17.004;2022-08-18T17:28:16;22.70;99.90
34985;DHT22;21190;58.750;17.004;2022-08-18T17:30:48;22.70;99.90
34985;DHT22;21190;58.750;17.004;2022-08-18T17:33:22;22.70;99.90
34985;DHT22;21190;58.750;17.004;2022-08-18T17:35:50;22.70;99.90
34985;DHT22;21190;58.750;17.004;2022-08-18T17:38:21;22.70;99.90
34985;DHT22;21190;58.750;17.004;2022-08-18T17:40:53;22.70;99.90
34985;DHT22;21190;58.750;17.004;2022-08-18T17:43:25;22.60;99.90
34985;DHT22;21190;58.750;17.004;2022-08-18T17:45:56;22.50;99.90
34985;DHT22;21190;58.750;17.004;2022-08-18T17:48:29;22.50;99.90
34985;DHT22;21190;58.750;17.004;2022-08-18T17:51:02;22.40;99.90
34985;DHT22;21190;58.750;17.004;2022-08-18T17:53:48;22.40;99.90
34985;DHT22;21190;58.750;17.004;2022-08-18T18:01:12;22.30;99.90
34985;DHT22;21190;58.750;17.004;2022-08-18T18:03:41;22.20;99.90
34985;DHT22;21190;58.750;17.004;2022-08-18T18:06:12;22.20;99.90
34985;DHT22;21190;58.750;17.004;2022-08-18T18:11:13;22.20;99.90